createdAt,value
2022-08-12T00:00:39.677Z,1.77
2022-08-12T00:03:24.712Z,2.07
2022-08-12T00:06:10.396Z,2.23
2022-08-12T00:08:57.122Z,2.53
2022-08-12T00:11:43.108Z,2.17
2022-08-12T00:14:28.229Z,2.30
2022-08-12T00:17:13.747Z,2.30
2022-08-12T00:19:58.935Z,2.57
2022-08-12T00:22:44.335Z,1.93
2022-08-12T00:26:19.020Z,2.33
2022-08-12T00:28:34.563Z,2.00
2022-08-12T00:31:19.655Z,2.03
2022-08-12T00:34:05.370Z,2.17
2022-08-12T00:36:50.712Z,1.97
2022-08-12T00:39:35.977Z,1.97
2022-08-12T00:42:11.874Z,2.13
2022-08-12T00:44:43.434Z,1.97
2022-08-12T00:47:24.976Z,2.10
2022-08-12T00:49:55.146Z,2.40
2022-08-12T00:52:22.740Z,2.53
2022-08-12T00:54:57.112Z,2.00
2022-08-12T00:57:26.708Z,2.17
2022-08-12T01:00:00.833Z,1.93
2022-08-12T01:02:36.110Z,2.20
2022-08-12T01:05:29.474Z,2.20
2022-08-12T01:08:14.941Z,2.47
2022-08-12T01:11:02.717Z,2.20
2022-08-12T01:13:31.173Z,2.20
2022-08-12T01:15:59.799Z,2.17
2022-08-12T01:18:29.737Z,2.40
2022-08-12T01:21:27.173Z,2.47
2022-08-12T01:24:30.159Z,2.13
2022-08-12T01:26:54.823Z,2.40
2022-08-12T01:29:32.790Z,2.23
2022-08-12T01:32:08.705Z,2.30
2022-08-12T01:34:37.502Z,2.10
2022-08-12T01:37:06.558Z,2.40
2022-08-12T01:40:33.301Z,2.50
2022-08-12T01:42:42.326Z,2.20
2022-08-12T01:45:10.210Z,2.50
2022-08-12T01:47:55.262Z,2.37
2022-08-12T01:50:33.276Z,2.63
2022-08-12T01:53:11.316Z,2.60
2022-08-12T01:55:43.758Z,2.63
2022-08-12T01:58:51.979Z,2.40
2022-08-12T02:01:20.761Z,2.47
2022-08-12T02:04:34.720Z,2.60
2022-08-12T02:07:35.201Z,2.50
2022-08-12T02:10:52.061Z,2.37
2022-08-12T02:13:33.259Z,2.37
2022-08-12T02:16:41.357Z,2.50
2022-08-12T02:19:35.349Z,2.87
2022-08-12T02:22:15.320Z,2.50
2022-08-12T02:24:42.532Z,2.60
2022-08-12T02:27:10.407Z,2.93
2022-08-12T02:29:37.017Z,3.07
2022-08-12T02:32:03.904Z,3.07
2022-08-12T02:34:30.597Z,3.00
2022-08-12T02:37:03.533Z,2.87
2022-08-12T02:39:33.619Z,2.70
2022-08-12T02:42:03.171Z,2.90
2022-08-12T02:44:31.939Z,2.50
2022-08-12T02:47:01.419Z,2.80
2022-08-12T02:49:33.141Z,3.03
2022-08-12T02:52:00.242Z,2.70
2022-08-12T02:54:27.541Z,2.80
2022-08-12T02:56:54.816Z,3.17
2022-08-12T02:59:24.936Z,3.47
2022-08-12T03:02:04.404Z,2.83
2022-08-12T03:04:43.685Z,3.07
2022-08-12T03:07:14.400Z,3.00
2022-08-12T03:10:04.462Z,2.50
2022-08-12T03:12:35.690Z,2.90
2022-08-12T03:15:12.215Z,3.30
2022-08-12T03:17:47.162Z,2.93
2022-08-12T03:20:38.141Z,3.20
2022-08-12T03:23:06.131Z,2.80
2022-08-12T03:25:35.812Z,3.20
2022-08-12T03:28:03.263Z,3.03
2022-08-12T03:30:32.599Z,3.40
2022-08-12T03:33:01.582Z,2.57
2022-08-12T03:35:41.403Z,3.00
2022-08-12T03:38:12.122Z,3.70
2022-08-12T03:41:09.117Z,3.40
2022-08-12T03:43:59.550Z,3.67
2022-08-12T03:46:49.387Z,3.40
2022-08-12T03:49:34.487Z,3.30
2022-08-12T03:52:19.536Z,3.03
2022-08-12T03:55:04.458Z,3.00
2022-08-12T03:57:49.668Z,3.40
2022-08-12T04:00:25.019Z,2.90
2022-08-12T04:03:24.480Z,3.83
2022-08-12T04:05:55.813Z,3.47
2022-08-12T04:08:25.858Z,3.43
2022-08-12T04:11:13.918Z,3.17
2022-08-12T04:13:43.211Z,3.70
2022-08-12T04:16:10.736Z,3.27
2022-08-12T04:18:38.789Z,3.60
2022-08-12T04:21:08.837Z,4.00
2022-08-12T04:23:35.371Z,4.23
2022-08-12T04:26:01.784Z,3.80
2022-08-12T04:28:28.360Z,3.20
2022-08-12T04:30:57.388Z,3.70
2022-08-12T04:33:24.371Z,3.37
2022-08-12T04:35:51.031Z,3.43
2022-08-12T04:38:17.927Z,3.80
2022-08-12T04:40:46.204Z,4.00
2022-08-12T04:43:55.306Z,3.47
2022-08-12T04:45:59.184Z,3.63
2022-08-12T04:48:25.610Z,3.53
2022-08-12T04:50:52.230Z,3.80
2022-08-12T04:53:19.149Z,3.60
2022-08-12T04:55:46.594Z,3.30
2022-08-12T04:58:13.036Z,4.30
2022-08-12T05:00:41.583Z,4.17
2022-08-12T05:03:08.342Z,3.87
2022-08-12T05:05:36.514Z,3.43
2022-08-12T05:08:04.253Z,3.73
2022-08-12T05:10:33.767Z,3.80
2022-08-12T05:13:05.023Z,3.63
2022-08-12T05:15:31.519Z,3.60
2022-08-12T05:18:00.102Z,3.73
2022-08-12T05:20:29.676Z,3.40
2022-08-12T05:23:12.884Z,3.30
2022-08-12T05:25:45.863Z,4.10
2022-08-12T05:28:13.473Z,4.37
2022-08-12T05:30:42.645Z,3.97
2022-08-12T05:33:09.740Z,4.13
2022-08-12T05:35:41.662Z,4.80
2022-08-12T05:38:27.817Z,4.17
2022-08-12T05:40:55.018Z,4.40
2022-08-12T05:43:21.886Z,3.57
2022-08-12T05:45:49.576Z,3.40
2022-08-12T05:48:16.559Z,3.30
2022-08-12T05:50:44.075Z,3.37
2022-08-12T05:53:10.671Z,3.30
2022-08-12T05:55:37.178Z,4.20
2022-08-12T05:58:05.089Z,3.80
2022-08-12T06:00:32.127Z,3.60
2022-08-12T06:03:02.098Z,4.40
2022-08-12T06:05:29.623Z,4.07
2022-08-12T06:08:02.928Z,3.77
2022-08-12T06:10:31.686Z,3.63
2022-08-12T06:13:09.145Z,3.37
2022-08-12T06:15:41.123Z,3.27
2022-08-12T06:18:13.947Z,3.57
2022-08-12T06:20:43.854Z,3.60
2022-08-12T06:23:11.857Z,3.07
2022-08-12T06:25:38.878Z,3.20
2022-08-12T06:28:15.851Z,3.23
2022-08-12T06:30:42.508Z,3.33
2022-08-12T06:33:22.244Z,3.43
2022-08-12T06:35:50.684Z,2.90
2022-08-12T06:38:27.888Z,3.13
2022-08-12T06:41:14.574Z,3.27
2022-08-12T06:44:06.307Z,3.50
2022-08-12T06:46:30.679Z,3.17
2022-08-12T06:48:58.879Z,3.70
2022-08-12T06:51:27.614Z,3.50
2022-08-12T06:53:55.904Z,3.07
2022-08-12T06:56:34.745Z,3.10
2022-08-12T06:59:11.587Z,3.10
2022-08-12T07:01:38.572Z,3.07
2022-08-12T07:04:33.383Z,4.07
2022-08-12T07:06:51.572Z,4.10
2022-08-12T07:10:01.582Z,3.00
2022-08-12T07:12:04.827Z,3.07
2022-08-12T07:14:31.550Z,3.40
2022-08-12T07:17:02.253Z,3.73
2022-08-12T07:19:40.679Z,3.73
2022-08-12T07:22:14.148Z,3.43
2022-08-12T07:24:40.645Z,3.20
2022-08-12T07:27:07.134Z,3.13
2022-08-12T07:30:03.539Z,3.20
2022-08-12T07:32:24.430Z,2.77
2022-08-12T07:34:54.694Z,3.37
2022-08-12T07:37:21.457Z,3.10
2022-08-12T07:39:50.855Z,3.43
2022-08-12T07:42:26.390Z,3.40
2022-08-12T07:44:53.054Z,3.28
2022-08-12T07:47:19.581Z,3.42
2022-08-12T07:50:03.646Z,3.00
2022-08-12T07:52:35.575Z,3.30
2022-08-12T07:55:03.064Z,3.22
2022-08-12T07:57:29.617Z,2.92
2022-08-12T07:59:56.340Z,3.20
2022-08-12T08:02:26.730Z,3.00
2022-08-12T08:04:57.229Z,3.20
2022-08-12T08:07:25.826Z,2.90
2022-08-12T08:09:59.168Z,2.83
2022-08-12T08:12:48.739Z,3.38
2022-08-12T08:15:15.880Z,3.53
2022-08-12T08:17:59.544Z,3.25
2022-08-12T08:20:28.769Z,2.72
2022-08-12T08:22:56.984Z,2.70
2022-08-12T08:25:35.704Z,3.03
2022-08-12T08:28:06.221Z,3.25
2022-08-12T08:30:34.190Z,3.45
2022-08-12T08:33:00.771Z,3.00
2022-08-12T08:35:28.139Z,3.30
2022-08-12T08:38:23.508Z,3.15
2022-08-12T08:42:15.825Z,3.40
2022-08-12T08:44:05.832Z,3.30
2022-08-12T08:46:37.638Z,3.80
2022-08-12T08:49:05.356Z,3.60
2022-08-12T08:51:31.898Z,3.40
2022-08-12T08:53:58.510Z,3.03
2022-08-12T08:56:24.958Z,3.58
2022-08-12T08:58:51.427Z,3.47
2022-08-12T09:01:22.576Z,3.65
2022-08-12T09:05:08.739Z,3.20
2022-08-12T09:06:37.966Z,3.40
2022-08-12T09:09:13.278Z,3.72
2022-08-12T09:12:10.771Z,2.85
2022-08-12T09:14:42.085Z,3.38
2022-08-12T09:17:13.882Z,3.58
2022-08-12T09:19:52.273Z,3.42
2022-08-12T09:22:28.642Z,4.00
2022-08-12T09:24:56.258Z,3.15
2022-08-12T09:27:57.615Z,3.33
2022-08-12T09:30:15.809Z,3.03
2022-08-12T09:33:04.415Z,3.30
2022-08-12T09:35:44.424Z,3.40
2022-08-12T09:38:28.248Z,3.28
2022-08-12T09:42:09.453Z,3.10
2022-08-12T09:44:06.027Z,2.78
2022-08-12T09:46:34.663Z,2.90
2022-08-12T09:49:04.126Z,2.80
2022-08-12T09:51:43.559Z,2.72
2022-08-12T09:54:31.497Z,2.65
2022-08-12T09:57:03.776Z,2.58
2022-08-12T10:00:13.373Z,2.90
2022-08-12T10:02:52.534Z,3.10
2022-08-12T10:05:22.721Z,3.42
2022-08-12T10:08:11.263Z,3.17
2022-08-12T10:11:01.520Z,2.40
2022-08-12T10:13:43.090Z,2.92
2022-08-12T10:16:22.117Z,2.20
2022-08-12T10:18:52.359Z,2.22
2022-08-12T10:21:35.454Z,2.25
2022-08-12T10:24:11.034Z,2.60
2022-08-12T10:26:58.104Z,2.65
2022-08-12T10:30:11.866Z,2.40
2022-08-12T10:32:43.204Z,2.42
2022-08-12T10:35:14.331Z,2.28
2022-08-12T10:38:34.061Z,2.80
2022-08-12T10:40:33.054Z,1.90
2022-08-12T10:43:20.091Z,2.33
2022-08-12T10:45:51.767Z,2.58
2022-08-12T10:48:26.859Z,1.92
2022-08-12T10:52:04.933Z,1.77
2022-08-12T10:53:52.729Z,1.90
2022-08-12T10:56:19.655Z,2.38
2022-08-12T10:58:48.375Z,2.03
2022-08-12T11:01:50.613Z,2.00
2022-08-12T11:04:23.739Z,2.03
2022-08-12T11:07:08.560Z,2.10
2022-08-12T11:09:56.232Z,2.08
2022-08-12T11:12:56.034Z,1.80
2022-08-12T11:15:20.928Z,1.80
2022-08-12T11:17:52.758Z,1.60
2022-08-12T11:20:23.970Z,1.60
2022-08-12T11:23:03.529Z,1.60
2022-08-12T11:25:55.945Z,1.67
2022-08-12T11:28:16.899Z,1.67
2022-08-12T11:30:44.188Z,1.90
2022-08-12T11:33:12.319Z,2.00
2022-08-12T11:35:52.361Z,1.50
2022-08-12T11:38:22.739Z,2.05
2022-08-12T11:40:50.305Z,1.85
2022-08-12T11:43:19.652Z,1.90
2022-08-12T11:45:47.543Z,1.75
2022-08-12T11:48:19.208Z,1.40
2022-08-12T11:50:53.629Z,1.98
2022-08-12T11:53:56.560Z,1.75
2022-08-12T11:56:07.248Z,1.67
2022-08-12T12:01:52.630Z,1.83
2022-08-12T12:02:02.376Z,1.90
2022-08-12T12:04:10.903Z,1.80
2022-08-12T12:06:37.374Z,2.03
2022-08-12T12:09:04.452Z,1.70
2022-08-12T12:11:49.014Z,1.90
2022-08-12T12:14:16.127Z,1.85
2022-08-12T12:16:49.904Z,1.80
2022-08-12T12:19:17.778Z,2.00
2022-08-12T12:21:47.415Z,2.10
2022-08-12T12:24:21.825Z,1.60
2022-08-12T12:27:00.894Z,1.80
2022-08-12T12:30:13.445Z,1.85
2022-08-12T12:32:15.839Z,1.83
2022-08-12T12:35:44.314Z,2.00
2022-08-12T12:38:03.843Z,1.90
2022-08-12T12:40:15.234Z,1.90
2022-08-12T12:42:59.753Z,2.05
2022-08-12T12:45:32.447Z,1.65
2022-08-12T12:48:04.786Z,2.13
2022-08-12T12:51:09.855Z,2.10
2022-08-12T12:54:06.784Z,1.90
2022-08-12T12:56:34.560Z,1.60
2022-08-12T12:59:03.509Z,1.88
2022-08-12T13:01:30.966Z,1.95
2022-08-12T13:04:01.962Z,1.83
2022-08-12T13:06:30.803Z,1.67
2022-08-12T13:09:02.384Z,2.05
2022-08-12T13:11:32.773Z,2.00
2022-08-12T13:14:12.653Z,2.15
2022-08-12T13:16:44.039Z,1.80
2022-08-12T13:19:11.075Z,1.85
2022-08-12T13:22:01.648Z,1.67
2022-08-12T13:24:31.753Z,1.77
2022-08-12T13:26:58.303Z,1.88
2022-08-12T13:29:24.717Z,2.08
2022-08-12T13:32:18.675Z,1.92
2022-08-12T13:34:42.045Z,1.88
2022-08-12T13:37:09.103Z,1.95
2022-08-12T13:39:36.609Z,1.90
2022-08-12T13:42:03.181Z,1.77
2022-08-12T13:44:30.177Z,1.80
2022-08-12T13:46:58.389Z,1.80
2022-08-12T13:49:53.648Z,1.83
2022-08-12T13:52:12.301Z,2.05
2022-08-12T13:54:38.715Z,2.05
2022-08-12T13:57:11.145Z,1.77
2022-08-12T13:59:48.301Z,1.90
2022-08-12T14:02:22.588Z,1.80
2022-08-12T14:04:56.627Z,2.03
2022-08-12T14:07:23.633Z,2.00
2022-08-12T14:10:11.326Z,2.28
2022-08-12T14:12:40.176Z,2.30
2022-08-12T14:15:21.480Z,1.75
2022-08-12T14:18:08.954Z,1.80
2022-08-12T14:20:40.638Z,2.08
2022-08-12T14:24:01.217Z,1.65
2022-08-12T14:25:58.862Z,2.20
2022-08-12T14:28:26.240Z,2.30
2022-08-12T14:31:01.234Z,1.88
2022-08-12T14:33:44.218Z,2.10
2022-08-12T14:36:12.771Z,1.95
2022-08-12T14:38:41.194Z,2.10
2022-08-12T14:41:14.716Z,1.80
2022-08-12T14:43:44.337Z,2.30
2022-08-12T14:46:27.219Z,2.20
2022-08-12T14:48:54.755Z,2.33
2022-08-12T14:52:38.940Z,1.90
2022-08-12T14:56:58.947Z,1.95
2022-08-12T14:57:05.732Z,2.03
2022-08-12T15:00:02.619Z,1.95
2022-08-12T15:02:29.552Z,1.95
2022-08-12T15:04:59.185Z,1.90
2022-08-12T15:07:32.883Z,2.20
2022-08-12T15:10:13.720Z,1.90
2022-08-12T15:12:40.641Z,1.80
2022-08-12T15:15:08.812Z,1.90
2022-08-12T15:17:38.522Z,1.90
2022-08-12T15:20:31.482Z,2.10
2022-08-12T15:22:53.919Z,2.05
2022-08-12T15:25:20.708Z,2.05
2022-08-12T15:28:03.851Z,1.90
2022-08-12T15:30:33.980Z,2.03
2022-08-12T15:33:00.496Z,2.10
2022-08-12T15:35:50.328Z,2.30
2022-08-12T15:38:20.610Z,2.10
2022-08-12T15:40:52.464Z,1.90
2022-08-12T15:43:35.379Z,1.90
2022-08-12T15:46:06.582Z,1.98
2022-08-12T15:48:33.917Z,2.03
2022-08-12T15:51:02.203Z,1.98
2022-08-12T15:53:53.204Z,2.10
2022-08-12T15:56:29.121Z,2.20
2022-08-12T15:58:58.230Z,1.70
2022-08-12T16:01:25.204Z,2.15
2022-08-12T16:04:01.899Z,2.50
2022-08-12T16:07:00.617Z,1.88
2022-08-12T16:09:21.565Z,2.17
2022-08-12T16:11:48.282Z,2.53
2022-08-12T16:14:16.205Z,1.83
2022-08-12T16:16:42.868Z,1.92
2022-08-12T16:20:01.598Z,1.88
2022-08-12T16:21:58.506Z,1.92
2022-08-12T16:24:25.665Z,2.08
2022-08-12T16:26:55.363Z,1.95
2022-08-12T16:29:38.549Z,2.00
2022-08-12T16:32:21.061Z,2.00
2022-08-12T16:34:55.562Z,1.85
2022-08-12T16:37:32.212Z,1.80
2022-08-12T16:40:10.889Z,1.80
2022-08-12T16:42:42.103Z,1.60
2022-08-12T16:45:20.881Z,1.55
2022-08-12T16:47:57.564Z,1.75
2022-08-12T16:50:30.798Z,2.00
2022-08-12T16:52:59.818Z,1.58
2022-08-12T16:55:33.971Z,1.63
2022-08-12T16:58:28.304Z,1.60
2022-08-12T17:00:58.562Z,1.85
2022-08-12T17:03:29.114Z,1.60
2022-08-12T17:05:57.059Z,1.90
2022-08-12T17:08:28.975Z,1.80
2022-08-12T17:10:56.143Z,1.77
2022-08-12T17:13:24.041Z,1.70
2022-08-12T17:16:04.972Z,1.55
2022-08-12T17:18:43.851Z,1.75
2022-08-12T17:21:40.703Z,1.63
2022-08-12T17:24:10.945Z,1.80
2022-08-12T17:26:44.918Z,1.95
2022-08-12T17:29:19.506Z,1.88
2022-08-12T17:32:02.649Z,1.95
2022-08-12T17:34:49.427Z,1.70
2022-08-12T17:37:16.276Z,2.00
2022-08-12T17:40:14.899Z,2.20
2022-08-12T17:42:34.488Z,1.85
2022-08-12T17:45:01.712Z,1.90
2022-08-12T17:47:31.168Z,1.88
2022-08-12T17:50:08.269Z,2.00
2022-08-12T17:52:39.419Z,2.00
2022-08-12T17:55:40.002Z,1.70
2022-08-12T17:58:00.334Z,1.75
2022-08-12T18:00:28.217Z,1.90
2022-08-12T18:02:57.781Z,1.80
2022-08-12T18:05:25.574Z,2.10
2022-08-12T18:08:11.063Z,1.80
2022-08-12T18:11:12.016Z,2.10
2022-08-12T18:13:50.362Z,1.75
2022-08-12T18:16:24.530Z,1.95
2022-08-12T18:18:51.184Z,2.20
2022-08-12T18:21:25.654Z,2.15
2022-08-12T18:23:53.918Z,2.05
2022-08-12T18:26:22.679Z,2.28
2022-08-12T18:28:54.436Z,2.15
2022-08-12T18:31:43.879Z,2.38
2022-08-12T18:34:12.184Z,2.10
2022-08-12T18:36:39.314Z,3.13
2022-08-12T18:39:20.108Z,2.50
2022-08-12T18:41:47.087Z,2.00
2022-08-12T18:44:13.778Z,2.50
2022-08-12T18:46:45.790Z,10.57
2022-08-12T18:49:18.709Z,25.13
2022-08-12T18:51:55.266Z,103.78
2022-08-12T18:54:30.376Z,109.28
2022-08-12T18:57:00.671Z,160.65
2022-08-12T19:00:00.683Z,40.95
2022-08-12T19:02:21.216Z,35.70
2022-08-12T19:04:53.026Z,11.95
2022-08-12T19:07:22.730Z,8.15
2022-08-12T19:09:59.266Z,10.98
2022-08-12T19:12:57.550Z,6.03
2022-08-12T19:15:26.328Z,6.32
2022-08-12T19:18:00.686Z,9.63
2022-08-12T19:20:32.951Z,4.97
2022-08-12T19:23:07.431Z,6.25
2022-08-12T19:26:01.133Z,6.15
2022-08-12T19:28:34.973Z,5.70
2022-08-12T19:31:55.733Z,68.60
2022-08-12T19:35:18.534Z,97.75
2022-08-12T19:38:03.124Z,164.65
2022-08-12T19:40:20.445Z,107.22
2022-08-12T19:43:00.919Z,57.50
2022-08-12T19:45:42.063Z,14.98
2022-08-12T19:48:16.734Z,14.15
2022-08-12T19:50:44.913Z,6.50
2022-08-12T19:53:18.782Z,5.95
2022-08-12T19:55:51.871Z,18.63
2022-08-12T19:58:19.737Z,6.55
2022-08-12T20:00:53.267Z,5.77
2022-08-12T20:03:38.147Z,8.57
2022-08-12T20:06:13.671Z,4.10
2022-08-12T20:08:49.289Z,4.60
2022-08-12T20:12:09.482Z,5.40
2022-08-12T20:14:21.084Z,9.10
2022-08-12T20:16:57.870Z,5.03
2022-08-12T20:20:16.766Z,8.50
2022-08-12T20:22:24.093Z,4.87
2022-08-12T20:25:01.050Z,4.67
2022-08-12T20:28:05.630Z,3.77
2022-08-12T20:30:15.810Z,4.40
2022-08-12T20:32:54.035Z,3.80
2022-08-12T20:35:24.344Z,4.60
2022-08-12T20:38:04.827Z,3.73
2022-08-12T20:40:38.433Z,3.80
2022-08-12T20:43:06.443Z,4.27
2022-08-12T20:45:50.587Z,3.50
2022-08-12T20:48:24.240Z,2.97
2022-08-12T20:50:53.916Z,3.43
2022-08-12T20:53:28.869Z,3.50
2022-08-12T20:56:30.334Z,2.93
2022-08-12T20:58:59.841Z,3.10
2022-08-12T21:01:36.554Z,2.87
2022-08-12T21:04:31.946Z,3.23
2022-08-12T21:07:04.511Z,3.50
2022-08-12T21:09:47.531Z,3.07
2022-08-12T21:12:27.796Z,3.07
2022-08-12T21:15:00.747Z,2.93
2022-08-12T21:18:01.185Z,3.10
2022-08-12T21:20:32.563Z,3.30
2022-08-12T21:22:59.072Z,2.90
2022-08-12T21:25:35.853Z,3.07
2022-08-12T21:28:11.427Z,3.03
2022-08-12T21:30:55.079Z,2.80
2022-08-12T21:33:31.049Z,3.07
2022-08-12T21:35:58.141Z,2.77
2022-08-12T21:38:34.313Z,2.73
2022-08-12T21:41:00.977Z,2.87
2022-08-12T21:43:43.646Z,2.97
2022-08-12T21:46:14.961Z,2.80
2022-08-12T21:49:04.024Z,2.60
2022-08-12T21:51:49.223Z,2.37
2022-08-12T21:54:21.995Z,2.40
2022-08-12T21:56:50.244Z,2.47
2022-08-12T21:59:17.526Z,2.43
2022-08-12T22:01:48.966Z,2.40
2022-08-12T22:04:36.803Z,2.67
2022-08-12T22:07:06.166Z,2.60
2022-08-12T22:09:43.060Z,2.70
2022-08-12T22:12:28.667Z,2.50
2022-08-12T22:14:55.149Z,2.37
2022-08-12T22:17:21.607Z,2.07
2022-08-12T22:19:50.491Z,2.43
2022-08-12T22:22:17.014Z,2.30
2022-08-12T22:24:45.518Z,2.43
2022-08-12T22:27:22.789Z,2.23
2022-08-12T22:30:19.998Z,2.10
2022-08-12T22:32:51.531Z,2.23
2022-08-12T22:35:55.699Z,2.10
2022-08-12T22:38:23.988Z,1.90
2022-08-12T22:40:53.670Z,2.33
2022-08-12T22:43:58.908Z,2.40
2022-08-12T22:46:53.571Z,1.93
2022-08-12T22:49:37.415Z,2.43
2022-08-12T22:52:14.249Z,2.80
2022-08-12T22:54:59.968Z,2.90
2022-08-12T22:57:49.224Z,2.57
2022-08-12T23:00:24.651Z,3.10
2022-08-12T23:02:56.862Z,2.40
2022-08-12T23:05:36.825Z,2.73
2022-08-12T23:08:17.879Z,2.73
2022-08-12T23:10:45.140Z,2.80
2022-08-12T23:13:43.317Z,2.97
2022-08-12T23:16:18.239Z,3.33
2022-08-12T23:18:58.906Z,3.40
2022-08-12T23:21:26.385Z,3.43
2022-08-12T23:24:14.320Z,2.87
2022-08-12T23:27:03.162Z,3.27
2022-08-12T23:29:43.682Z,2.80
2022-08-12T23:32:35.919Z,3.23
2022-08-12T23:35:04.393Z,3.40
2022-08-12T23:37:46.746Z,3.77
2022-08-12T23:40:21.978Z,3.07
2022-08-12T23:42:49.032Z,3.30
2022-08-12T23:45:20.175Z,3.27
2022-08-12T23:47:53.133Z,3.20
2022-08-12T23:50:22.038Z,2.70
2022-08-12T23:52:48.816Z,3.10
2022-08-12T23:55:24.128Z,2.90
2022-08-12T23:58:23.199Z,3.00
